sensor_id;sensor_type;location;lat;lon;timestamp;temperature;humidity
3758;DHT22;1894;51.038;13.692;2023-04-15T00:01:05;7.60;99.90
3758;DHT22;1894;51.038;13.692;2023-04-15T00:03:34;7.70;99.90
3758;DHT22;1894;51.038;13.692;2023-04-15T00:06:02;7.70;99.90
3758;DHT22;1894;51.038;13.692;2023-04-15T00:08:29;7.60;99.90
3758;DHT22;1894;51.038;13.692;2023-04-15T00:10:56;7.60;99.90
3758;DHT22;1894;51.038;13.692;2023-04-15T00:13:28;7.70;99.90
3758;DHT22;1894;51.038;13.692;2023-04-15T00:15:56;7.60;99.90
3758;DHT22;1894;51.038;13.692;2023-04-15T00:18:23;7.60;99.90
3758;DHT22;1894;51.038;13.692;2023-04-15T00:20:50;7.50;99.90
3758;DHT22;1894;51.038;13.692;2023-04-15T00:23:18;7.50;99.90
3758;DHT22;1894;51.038;13.692;2023-04-15T00:25:45;7.50;99.90
3758;DHT22;1894;51.038;13.692;2023-04-15T00:28:13;7.40;99.90
3758;DHT22;1894;51.038;13.692;2023-04-15T00:30:41;7.30;99.90
3758;DHT22;1894;51.038;13.692;2023-04-15T00:33:09;7.40;99.90
3758;DHT22;1894;51.038;13.692;2023-04-15T00:35:36;7.40;99.90
3758;DHT22;1894;51.038;13.692;2023-04-15T00:38:05;7.30;99.90
3758;DHT22;1894;51.038;13.692;2023-04-15T00:40:35;7.40;99.90
3758;DHT22;1894;51.038;13.692;2023-04-15T00:43:03;7.40;99.90
3758;DHT22;1894;51.038;13.692;2023-04-15T00:45:31;7.40;99.90
3758;DHT22;1894;51.038;13.692;2023-04-15T00:47:59;7.40;99.90
3758;DHT22;1894;51.038;13.692;2023-04-15T00:50:26;7.40;99.90
3758;DHT22;1894;51.038;13.692;2023-04-15T00:52:53;7.40;99.90
3758;DHT22;1894;51.038;13.692;2023-04-15T00:55:21;7.40;99.90
3758;DHT22;1894;51.038;13.692;2023-04-15T00:57:48;7.40;99.90
3758;DHT22;1894;51.038;13.692;2023-04-15T01:00:16;7.40;99.90
3758;DHT22;1894;51.038;13.692;2023-04-15T01:02:45;7.50;99.90
3758;DHT22;1894;51.038;13.692;2023-04-15T01:05:12;7.50;99.90
3758;DHT22;1894;51.038;13.692;2023-04-15T01:07:43;7.50;99.90
3758;DHT22;1894;51.038;13.692;2023-04-15T01:10:10;7.50;99.90
3758;DHT22;1894;51.038;13.692;2023-04-15T01:12:37;7.40;99.90
3758;DHT22;1894;51.038;13.692;2023-04-15T01:15:06;7.50;99.90
3758;DHT22;1894;51.038;13.692;2023-04-15T01:17:35;7.40;99.90
3758;DHT22;1894;51.038;13.692;2023-04-15T01:20:06;7.60;99.90
3758;DHT22;1894;51.038;13.692;2023-04-15T01:22:37;7.50;99.90
3758;DHT22;1894;51.038;13.692;2023-04-15T01:25:12;7.50;99.90
3758;DHT22;1894;51.038;13.692;2023-04-15T01:27:43;7.60;99.90
3758;DHT22;1894;51.038;13.692;2023-04-15T01:30:11;7.60;99.90
3758;DHT22;1894;51.038;13.692;2023-04-15T01:32:38;7.60;99.90
3758;DHT22;1894;51.038;13.692;2023-04-15T01:35:06;7.70;99.90
3758;DHT22;1894;51.038;13.692;2023-04-15T01:37:35;7.70;99.90
3758;DHT22;1894;51.038;13.692;2023-04-15T01:40:03;7.70;99.90
3758;DHT22;1894;51.038;13.692;2023-04-15T01:42:31;7.70;99.90
3758;DHT22;1894;51.038;13.692;2023-04-15T01:44:59;7.70;99.90
3758;DHT22;1894;51.038;13.692;2023-04-15T01:47:26;7.60;99.90
3758;DHT22;1894;51.038;13.692;2023-04-15T01:49:54;7.70;99.90
3758;DHT22;1894;51.038;13.692;2023-04-15T01:52:22;7.60;99.90
3758;DHT22;1894;51.038;13.692;2023-04-15T01:54:49;7.60;99.90
3758;DHT22;1894;51.038;13.692;2023-04-15T01:57:17;7.60;99.90
3758;DHT22;1894;51.038;13.692;2023-04-15T01:59:44;7.60;99.90
3758;DHT22;1894;51.038;13.692;2023-04-15T02:02:14;7.70;99.90
3758;DHT22;1894;51.038;13.692;2023-04-15T02:04:41;7.60;99.90
3758;DHT22;1894;51.038;13.692;2023-04-15T02:07:08;7.80;99.90
3758;DHT22;1894;51.038;13.692;2023-04-15T02:09:35;7.70;99.90
3758;DHT22;1894;51.038;13.692;2023-04-15T02:12:04;7.70;99.90
3758;DHT22;1894;51.038;13.692;2023-04-15T02:14:31;7.70;99.90
3758;DHT22;1894;51.038;13.692;2023-04-15T02:16:58;7.70;99.90
3758;DHT22;1894;51.038;13.692;2023-04-15T02:19:36;7.50;99.90
3758;DHT22;1894;51.038;13.692;2023-04-15T02:22:03;7.60;99.90
3758;DHT22;1894;51.038;13.692;2023-04-15T02:24:30;7.60;99.90
3758;DHT22;1894;51.038;13.692;2023-04-15T02:26:57;7.70;99.90
3758;DHT22;1894;51.038;13.692;2023-04-15T02:29:24;7.70;99.90
3758;DHT22;1894;51.038;13.692;2023-04-15T02:31:52;7.70;99.90
3758;DHT22;1894;51.038;13.692;2023-04-15T02:34:19;7.50;99.90
3758;DHT22;1894;51.038;13.692;2023-04-15T02:36:46;7.60;99.90
3758;DHT22;1894;51.038;13.692;2023-04-15T02:39:15;7.50;99.90
3758;DHT22;1894;51.038;13.692;2023-04-15T02:41:44;7.60;99.90
3758;DHT22;1894;51.038;13.692;2023-04-15T02:44:17;7.50;99.90
3758;DHT22;1894;51.038;13.692;2023-04-15T02:46:48;7.70;99.90
3758;DHT22;1894;51.038;13.692;2023-04-15T02:49:18;7.70;99.90
3758;DHT22;1894;51.038;13.692;2023-04-15T02:51:45;7.60;99.90
3758;DHT22;1894;51.038;13.692;2023-04-15T02:54:17;7.60;99.90
3758;DHT22;1894;51.038;13.692;2023-04-15T02:56:45;7.80;99.90
3758;DHT22;1894;51.038;13.692;2023-04-15T02:59:12;7.80;99.90
3758;DHT22;1894;51.038;13.692;2023-04-15T03:01:39;7.80;99.90
3758;DHT22;1894;51.038;13.692;2023-04-15T03:04:07;7.80;99.90
3758;DHT22;1894;51.038;13.692;2023-04-15T03:06:35;7.80;99.90
3758;DHT22;1894;51.038;13.692;2023-04-15T03:09:02;7.70;99.90
3758;DHT22;1894;51.038;13.692;2023-04-15T03:11:34;7.80;99.90
3758;DHT22;1894;51.038;13.692;2023-04-15T03:14:07;7.80;99.90
3758;DHT22;1894;51.038;13.692;2023-04-15T03:16:40;7.80;99.90
3758;DHT22;1894;51.038;13.692;2023-04-15T03:19:07;7.70;99.90
3758;DHT22;1894;51.038;13.692;2023-04-15T03:21:36;7.60;99.90
3758;DHT22;1894;51.038;13.692;2023-04-15T03:24:03;7.60;99.90
3758;DHT22;1894;51.038;13.692;2023-04-15T03:26:31;7.50;99.90
3758;DHT22;1894;51.038;13.692;2023-04-15T03:29:07;7.60;99.90
3758;DHT22;1894;51.038;13.692;2023-04-15T03:31:34;7.60;99.90
3758;DHT22;1894;51.038;13.692;2023-04-15T03:34:01;7.80;99.90
3758;DHT22;1894;51.038;13.692;2023-04-15T03:36:30;7.80;99.90
3758;DHT22;1894;51.038;13.692;2023-04-15T03:39:00;7.80;99.90
3758;DHT22;1894;51.038;13.692;2023-04-15T03:41:28;7.70;99.90
3758;DHT22;1894;51.038;13.692;2023-04-15T03:43:56;7.70;99.90
3758;DHT22;1894;51.038;13.692;2023-04-15T03:46:23;7.70;99.90
3758;DHT22;1894;51.038;13.692;2023-04-15T03:48:50;7.70;99.90
3758;DHT22;1894;51.038;13.692;2023-04-15T03:51:17;7.60;99.90
3758;DHT22;1894;51.038;13.692;2023-04-15T03:53:44;7.60;99.90
3758;DHT22;1894;51.038;13.692;2023-04-15T03:56:12;7.50;99.90
3758;DHT22;1894;51.038;13.692;2023-04-15T03:58:39;7.50;99.90
3758;DHT22;1894;51.038;13.692;2023-04-15T04:01:06;7.60;99.90
3758;DHT22;1894;51.038;13.692;2023-04-15T04:03:34;7.50;99.90
3758;DHT22;1894;51.038;13.692;2023-04-15T04:06:01;7.60;99.90
3758;DHT22;1894;51.038;13.692;2023-04-15T04:08:28;7.60;99.90
3758;DHT22;1894;51.038;13.692;2023-04-15T04:10:55;7.60;99.90
3758;DHT22;1894;51.038;13.692;2023-04-15T04:13:22;7.70;99.90
3758;DHT22;1894;51.038;13.692;2023-04-15T04:15:49;7.70;99.90
3758;DHT22;1894;51.038;13.692;2023-04-15T04:18:17;7.80;99.90
3758;DHT22;1894;51.038;13.692;2023-04-15T04:20:44;7.80;99.90
3758;DHT22;1894;51.038;13.692;2023-04-15T04:23:12;7.90;99.90
3758;DHT22;1894;51.038;13.692;2023-04-15T04:25:39;7.90;99.90
3758;DHT22;1894;51.038;13.692;2023-04-15T04:28:06;7.90;99.90
3758;DHT22;1894;51.038;13.692;2023-04-15T04:30:34;7.70;99.90
3758;DHT22;1894;51.038;13.692;2023-04-15T04:33:01;7.70;99.90
3758;DHT22;1894;51.038;13.692;2023-04-15T04:35:29;7.80;99.90
3758;DHT22;1894;51.038;13.692;2023-04-15T04:37:56;7.80;99.90
3758;DHT22;1894;51.038;13.692;2023-04-15T04:40:23;7.80;99.90
3758;DHT22;1894;51.038;13.692;2023-04-15T04:42:50;7.90;99.90
3758;DHT22;1894;51.038;13.692;2023-04-15T04:45:18;7.90;99.90
3758;DHT22;1894;51.038;13.692;2023-04-15T04:47:45;7.90;99.90
3758;DHT22;1894;51.038;13.692;2023-04-15T04:50:13;7.90;99.90
3758;DHT22;1894;51.038;13.692;2023-04-15T04:52:40;7.80;99.90
3758;DHT22;1894;51.038;13.692;2023-04-15T04:55:08;7.80;99.90
3758;DHT22;1894;51.038;13.692;2023-04-15T04:57:35;7.70;99.90
3758;DHT22;1894;51.038;13.692;2023-04-15T05:00:04;7.70;99.90
3758;DHT22;1894;51.038;13.692;2023-04-15T05:02:32;7.80;99.90
3758;DHT22;1894;51.038;13.692;2023-04-15T05:05:00;7.90;99.90
3758;DHT22;1894;51.038;13.692;2023-04-15T05:07:27;7.70;99.90
3758;DHT22;1894;51.038;13.692;2023-04-15T05:09:54;7.70;99.90
3758;DHT22;1894;51.038;13.692;2023-04-15T05:12:21;7.70;99.90
3758;DHT22;1894;51.038;13.692;2023-04-15T05:14:48;7.80;99.90
3758;DHT22;1894;51.038;13.692;2023-04-15T05:17:15;7.90;99.90
3758;DHT22;1894;51.038;13.692;2023-04-15T05:19:43;7.90;99.90
3758;DHT22;1894;51.038;13.692;2023-04-15T05:22:10;7.90;99.90
3758;DHT22;1894;51.038;13.692;2023-04-15T05:24:37;7.80;99.90
3758;DHT22;1894;51.038;13.692;2023-04-15T05:27:04;7.70;99.90
3758;DHT22;1894;51.038;13.692;2023-04-15T05:29:31;7.80;99.90
3758;DHT22;1894;51.038;13.692;2023-04-15T05:31:58;7.90;99.90
3758;DHT22;1894;51.038;13.692;2023-04-15T05:34:26;7.90;99.90
3758;DHT22;1894;51.038;13.692;2023-04-15T05:36:53;7.90;99.90
3758;DHT22;1894;51.038;13.692;2023-04-15T05:39:20;7.80;99.90
3758;DHT22;1894;51.038;13.692;2023-04-15T05:41:47;7.80;99.90
3758;DHT22;1894;51.038;13.692;2023-04-15T05:44:14;7.70;99.90
3758;DHT22;1894;51.038;13.692;2023-04-15T05:46:42;7.70;99.90
3758;DHT22;1894;51.038;13.692;2023-04-15T05:49:09;7.50;99.90
3758;DHT22;1894;51.038;13.692;2023-04-15T05:51:36;7.50;99.90
3758;DHT22;1894;51.038;13.692;2023-04-15T05:54:03;7.60;99.90
3758;DHT22;1894;51.038;13.692;2023-04-15T05:56:30;7.50;99.90
3758;DHT22;1894;51.038;13.692;2023-04-15T05:58:58;7.50;99.90
3758;DHT22;1894;51.038;13.692;2023-04-15T06:01:25;7.50;99.90
3758;DHT22;1894;51.038;13.692;2023-04-15T06:03:53;7.60;99.90
3758;DHT22;1894;51.038;13.692;2023-04-15T06:06:20;7.60;99.90
3758;DHT22;1894;51.038;13.692;2023-04-15T06:08:48;7.60;99.90
3758;DHT22;1894;51.038;13.692;2023-04-15T06:11:15;7.60;99.90
3758;DHT22;1894;51.038;13.692;2023-04-15T06:13:42;7.60;99.90
3758;DHT22;1894;51.038;13.692;2023-04-15T06:16:09;7.60;99.90
3758;DHT22;1894;51.038;13.692;2023-04-15T06:18:37;7.60;99.90
3758;DHT22;1894;51.038;13.692;2023-04-15T06:21:05;7.60;99.90
3758;DHT22;1894;51.038;13.692;2023-04-15T06:23:35;7.70;99.90
3758;DHT22;1894;51.038;13.692;2023-04-15T06:26:03;7.70;99.90
3758;DHT22;1894;51.038;13.692;2023-04-15T06:28:31;7.80;99.90
3758;DHT22;1894;51.038;13.692;2023-04-15T06:30:58;7.80;99.90
3758;DHT22;1894;51.038;13.692;2023-04-15T06:33:25;7.70;99.90
3758;DHT22;1894;51.038;13.692;2023-04-15T06:35:52;7.70;99.90
3758;DHT22;1894;51.038;13.692;2023-04-15T06:38:20;7.80;99.90
3758;DHT22;1894;51.038;13.692;2023-04-15T06:40:47;7.70;99.90
3758;DHT22;1894;51.038;13.692;2023-04-15T06:43:14;7.80;99.90
3758;DHT22;1894;51.038;13.692;2023-04-15T06:45:41;7.80;99.90
3758;DHT22;1894;51.038;13.692;2023-04-15T06:48:08;7.80;99.90
3758;DHT22;1894;51.038;13.692;2023-04-15T06:50:35;7.90;99.90
3758;DHT22;1894;51.038;13.692;2023-04-15T06:53:03;7.90;99.90
3758;DHT22;1894;51.038;13.692;2023-04-15T06:55:30;7.90;99.90
3758;DHT22;1894;51.038;13.692;2023-04-15T06:57:58;8.00;99.90
3758;DHT22;1894;51.038;13.692;2023-04-15T07:00:25;8.00;99.90
3758;DHT22;1894;51.038;13.692;2023-04-15T07:02:52;8.00;99.90
3758;DHT22;1894;51.038;13.692;2023-04-15T07:05:21;8.00;99.90
3758;DHT22;1894;51.038;13.692;2023-04-15T07:07:48;8.00;99.90
3758;DHT22;1894;51.038;13.692;2023-04-15T07:10:16;8.00;99.90
3758;DHT22;1894;51.038;13.692;2023-04-15T07:12:43;8.10;99.90
3758;DHT22;1894;51.038;13.692;2023-04-15T07:15:10;8.20;99.90
3758;DHT22;1894;51.038;13.692;2023-04-15T07:17:38;8.10;99.90
3758;DHT22;1894;51.038;13.692;2023-04-15T07:20:06;8.30;99.90
3758;DHT22;1894;51.038;13.692;2023-04-15T07:22:34;8.30;99.90
3758;DHT22;1894;51.038;13.692;2023-04-15T07:25:01;8.20;99.90
3758;DHT22;1894;51.038;13.692;2023-04-15T07:27:29;8.40;99.90
3758;DHT22;1894;51.038;13.692;2023-04-15T07:29:57;8.30;99.90
3758;DHT22;1894;51.038;13.692;2023-04-15T07:32:24;8.40;99.90
3758;DHT22;1894;51.038;13.692;2023-04-15T07:34:52;8.30;99.90
3758;DHT22;1894;51.038;13.692;2023-04-15T07:37:19;8.40;99.90
3758;DHT22;1894;51.038;13.692;2023-04-15T07:39:47;8.50;99.90
3758;DHT22;1894;51.038;13.692;2023-04-15T07:42:15;8.50;99.90
3758;DHT22;1894;51.038;13.692;2023-04-15T07:44:42;8.70;99.90
3758;DHT22;1894;51.038;13.692;2023-04-15T07:47:09;8.90;99.90
3758;DHT22;1894;51.038;13.692;2023-04-15T07:49:36;9.00;99.90
3758;DHT22;1894;51.038;13.692;2023-04-15T07:52:03;9.20;99.90
3758;DHT22;1894;51.038;13.692;2023-04-15T07:54:31;9.00;99.90
3758;DHT22;1894;51.038;13.692;2023-04-15T07:56:59;9.30;99.90
3758;DHT22;1894;51.038;13.692;2023-04-15T07:59:26;9.40;99.90
3758;DHT22;1894;51.038;13.692;2023-04-15T08:01:56;9.50;99.90
3758;DHT22;1894;51.038;13.692;2023-04-15T08:04:23;9.60;99.90
3758;DHT22;1894;51.038;13.692;2023-04-15T08:06:51;9.50;99.90
3758;DHT22;1894;51.038;13.692;2023-04-15T08:09:19;9.70;99.90
3758;DHT22;1894;51.038;13.692;2023-04-15T08:11:50;10.20;99.90
3758;DHT22;1894;51.038;13.692;2023-04-15T08:14:17;10.50;99.90
3758;DHT22;1894;51.038;13.692;2023-04-15T08:16:44;10.50;99.90
3758;DHT22;1894;51.038;13.692;2023-04-15T08:19:11;10.80;99.90
3758;DHT22;1894;51.038;13.692;2023-04-15T08:21:39;10.30;99.90
3758;DHT22;1894;51.038;13.692;2023-04-15T08:24:06;10.30;99.90
3758;DHT22;1894;51.038;13.692;2023-04-15T08:26:34;9.90;99.90
3758;DHT22;1894;51.038;13.692;2023-04-15T08:29:01;10.20;99.90
3758;DHT22;1894;51.038;13.692;2023-04-15T08:31:29;10.50;99.90
3758;DHT22;1894;51.038;13.692;2023-04-15T08:33:56;10.70;99.90
3758;DHT22;1894;51.038;13.692;2023-04-15T08:36:24;10.80;99.90
3758;DHT22;1894;51.038;13.692;2023-04-15T08:38:51;10.80;99.90
3758;DHT22;1894;51.038;13.692;2023-04-15T08:41:23;10.70;99.90
3758;DHT22;1894;51.038;13.692;2023-04-15T08:43:55;10.90;99.90
3758;DHT22;1894;51.038;13.692;2023-04-15T08:46:24;11.10;99.90
3758;DHT22;1894;51.038;13.692;2023-04-15T08:48:58;11.00;99.90
3758;DHT22;1894;51.038;13.692;2023-04-15T08:51:26;10.90;99.90
3758;DHT22;1894;51.038;13.692;2023-04-15T08:53:53;11.40;99.90
3758;DHT22;1894;51.038;13.692;2023-04-15T08:56:24;11.70;99.90
3758;DHT22;1894;51.038;13.692;2023-04-15T08:58:55;11.50;99.90
3758;DHT22;1894;51.038;13.692;2023-04-15T09:01:23;11.50;99.90
3758;DHT22;1894;51.038;13.692;2023-04-15T09:03:51;11.10;99.90
3758;DHT22;1894;51.038;13.692;2023-04-15T09:06:22;11.50;99.90
3758;DHT22;1894;51.038;13.692;2023-04-15T09:08:50;11.30;99.90
3758;DHT22;1894;51.038;13.692;2023-04-15T09:11:19;11.10;99.90
3758;DHT22;1894;51.038;13.692;2023-04-15T09:13:48;11.10;99.90
3758;DHT22;1894;51.038;13.692;2023-04-15T09:16:15;11.30;99.90
3758;DHT22;1894;51.038;13.692;2023-04-15T09:18:46;11.70;99.90
3758;DHT22;1894;51.038;13.692;2023-04-15T09:21:16;12.30;99.90
3758;DHT22;1894;51.038;13.692;2023-04-15T09:24:00;12.80;99.90
3758;DHT22;1894;51.038;13.692;2023-04-15T09:26:35;13.10;99.90
3758;DHT22;1894;51.038;13.692;2023-04-15T09:29:10;13.40;99.90
3758;DHT22;1894;51.038;13.692;2023-04-15T09:31:41;13.20;99.90
3758;DHT22;1894;51.038;13.692;2023-04-15T09:34:09;12.90;99.90
3758;DHT22;1894;51.038;13.692;2023-04-15T09:36:52;12.70;99.90
3758;DHT22;1894;51.038;13.692;2023-04-15T09:39:20;12.20;99.90
3758;DHT22;1894;51.038;13.692;2023-04-15T09:42:04;12.00;99.90
3758;DHT22;1894;51.038;13.692;2023-04-15T09:44:33;11.70;99.90
3758;DHT22;1894;51.038;13.692;2023-04-15T09:47:00;11.40;99.90
3758;DHT22;1894;51.038;13.692;2023-04-15T09:49:28;11.30;99.90
3758;DHT22;1894;51.038;13.692;2023-04-15T09:52:01;11.20;99.90
3758;DHT22;1894;51.038;13.692;2023-04-15T09:54:36;11.20;99.90
3758;DHT22;1894;51.038;13.692;2023-04-15T09:57:08;11.20;99.90
3758;DHT22;1894;51.038;13.692;2023-04-15T09:59:36;10.90;99.90
3758;DHT22;1894;51.038;13.692;2023-04-15T10:02:04;10.90;99.90
3758;DHT22;1894;51.038;13.692;2023-04-15T10:04:37;11.00;99.90
3758;DHT22;1894;51.038;13.692;2023-04-15T10:07:11;10.70;99.90
3758;DHT22;1894;51.038;13.692;2023-04-15T10:09:38;10.90;99.90
3758;DHT22;1894;51.038;13.692;2023-04-15T10:12:06;11.20;99.90
3758;DHT22;1894;51.038;13.692;2023-04-15T10:14:37;10.90;99.90
3758;DHT22;1894;51.038;13.692;2023-04-15T10:17:05;11.20;99.90
3758;DHT22;1894;51.038;13.692;2023-04-15T10:19:36;11.20;99.90
3758;DHT22;1894;51.038;13.692;2023-04-15T10:22:04;11.20;99.90
3758;DHT22;1894;51.038;13.692;2023-04-15T10:24:32;11.00;99.90
3758;DHT22;1894;51.038;13.692;2023-04-15T10:27:02;11.20;99.90
3758;DHT22;1894;51.038;13.692;2023-04-15T10:29:30;11.20;99.90
3758;DHT22;1894;51.038;13.692;2023-04-15T10:32:01;11.40;99.90
3758;DHT22;1894;51.038;13.692;2023-04-15T10:34:29;11.40;99.90
3758;DHT22;1894;51.038;13.692;2023-04-15T10:37:03;11.40;99.90
3758;DHT22;1894;51.038;13.692;2023-04-15T10:44:42;11.20;99.90
3758;DHT22;1894;51.038;13.692;2023-04-15T10:47:20;11.20;99.90
3758;DHT22;1894;51.038;13.692;2023-04-15T10:49:50;11.00;99.90
3758;DHT22;1894;51.038;13.692;2023-04-15T10:52:23;11.10;99.90
3758;DHT22;1894;51.038;13.692;2023-04-15T10:57:39;11.60;99.90
3758;DHT22;1894;51.038;13.692;2023-04-15T11:02:51;11.70;99.90
3758;DHT22;1894;51.038;13.692;2023-04-15T11:08:09;11.80;99.90
3758;DHT22;1894;51.038;13.692;2023-04-15T11:15:40;12.20;99.90
3758;DHT22;1894;51.038;13.692;2023-04-15T11:18:15;12.10;99.90
3758;DHT22;1894;51.038;13.692;2023-04-15T11:20:50;12.10;99.90
3758;DHT22;1894;51.038;13.692;2023-04-15T11:23:40;11.90;99.90
3758;DHT22;1894;51.038;13.692;2023-04-15T11:26:15;11.80;99.90
3758;DHT22;1894;51.038;13.692;2023-04-15T11:28:43;11.80;99.90
3758;DHT22;1894;51.038;13.692;2023-04-15T11:31:13;11.60;99.90
3758;DHT22;1894;51.038;13.692;2023-04-15T11:33:58;11.70;99.90
3758;DHT22;1894;51.038;13.692;2023-04-15T11:36:27;11.70;99.90
3758;DHT22;1894;51.038;13.692;2023-04-15T11:38:57;11.70;99.90
3758;DHT22;1894;51.038;13.692;2023-04-15T11:41:25;11.90;99.90
3758;DHT22;1894;51.038;13.692;2023-04-15T11:43:52;11.90;99.90
3758;DHT22;1894;51.038;13.692;2023-04-15T11:46:20;11.80;99.90
3758;DHT22;1894;51.038;13.692;2023-04-15T11:48:48;11.70;99.90
3758;DHT22;1894;51.038;13.692;2023-04-15T11:51:15;12.00;99.90
3758;DHT22;1894;51.038;13.692;2023-04-15T11:53:44;12.00;99.90
3758;DHT22;1894;51.038;13.692;2023-04-15T11:56:20;12.10;99.90
3758;DHT22;1894;51.038;13.692;2023-04-15T11:58:56;12.20;99.90
3758;DHT22;1894;51.038;13.692;2023-04-15T12:01:36;12.10;99.90
3758;DHT22;1894;51.038;13.692;2023-04-15T12:04:17;12.10;99.90
3758;DHT22;1894;51.038;13.692;2023-04-15T12:06:51;12.00;99.90
3758;DHT22;1894;51.038;13.692;2023-04-15T12:09:20;11.90;99.90
3758;DHT22;1894;51.038;13.692;2023-04-15T12:11:51;11.70;99.90
3758;DHT22;1894;51.038;13.692;2023-04-15T12:14:33;12.00;99.90
3758;DHT22;1894;51.038;13.692;2023-04-15T12:17:03;12.00;99.90
3758;DHT22;1894;51.038;13.692;2023-04-15T12:19:38;12.30;99.90
3758;DHT22;1894;51.038;13.692;2023-04-15T12:22:14;12.30;99.90
3758;DHT22;1894;51.038;13.692;2023-04-15T12:24:44;12.00;99.90
3758;DHT22;1894;51.038;13.692;2023-04-15T12:27:15;11.90;99.90
3758;DHT22;1894;51.038;13.692;2023-04-15T12:29:42;12.10;99.90
3758;DHT22;1894;51.038;13.692;2023-04-15T12:32:15;12.10;99.90
3758;DHT22;1894;51.038;13.692;2023-04-15T12:34:50;12.30;99.90
3758;DHT22;1894;51.038;13.692;2023-04-15T12:37:19;12.60;99.90
3758;DHT22;1894;51.038;13.692;2023-04-15T12:39:48;12.40;99.90
3758;DHT22;1894;51.038;13.692;2023-04-15T12:42:16;12.60;99.90
3758;DHT22;1894;51.038;13.692;2023-04-15T12:44:45;12.60;99.90
3758;DHT22;1894;51.038;13.692;2023-04-15T12:47:13;12.60;99.90
3758;DHT22;1894;51.038;13.692;2023-04-15T12:49:40;12.30;99.90
3758;DHT22;1894;51.038;13.692;2023-04-15T12:52:08;12.20;99.90
3758;DHT22;1894;51.038;13.692;2023-04-15T12:54:35;12.20;99.90
3758;DHT22;1894;51.038;13.692;2023-04-15T12:57:03;12.00;99.90
3758;DHT22;1894;51.038;13.692;2023-04-15T12:59:33;12.20;99.90
3758;DHT22;1894;51.038;13.692;2023-04-15T13:02:01;12.20;99.90
3758;DHT22;1894;51.038;13.692;2023-04-15T13:04:29;12.00;99.90
3758;DHT22;1894;51.038;13.692;2023-04-15T13:06:58;12.10;99.90
3758;DHT22;1894;51.038;13.692;2023-04-15T13:09:25;12.10;99.90
3758;DHT22;1894;51.038;13.692;2023-04-15T13:11:53;12.10;99.90
3758;DHT22;1894;51.038;13.692;2023-04-15T13:14:20;11.80;99.90
3758;DHT22;1894;51.038;13.692;2023-04-15T13:16:48;11.80;99.90
3758;DHT22;1894;51.038;13.692;2023-04-15T13:19:15;11.80;99.90
3758;DHT22;1894;51.038;13.692;2023-04-15T13:21:42;12.00;99.90
3758;DHT22;1894;51.038;13.692;2023-04-15T13:24:10;12.10;99.90
3758;DHT22;1894;51.038;13.692;2023-04-15T13:26:37;12.10;99.90
3758;DHT22;1894;51.038;13.692;2023-04-15T13:29:05;12.10;99.90
3758;DHT22;1894;51.038;13.692;2023-04-15T13:31:32;12.00;99.90
3758;DHT22;1894;51.038;13.692;2023-04-15T13:33:59;11.90;99.90
3758;DHT22;1894;51.038;13.692;2023-04-15T13:36:27;12.20;99.90
3758;DHT22;1894;51.038;13.692;2023-04-15T13:38:54;12.50;99.90
3758;DHT22;1894;51.038;13.692;2023-04-15T13:41:21;12.70;99.90
3758;DHT22;1894;51.038;13.692;2023-04-15T13:43:48;12.80;99.90
3758;DHT22;1894;51.038;13.692;2023-04-15T13:46:16;12.70;99.90
3758;DHT22;1894;51.038;13.692;2023-04-15T13:48:43;12.40;99.90
3758;DHT22;1894;51.038;13.692;2023-04-15T13:51:11;12.40;99.90
3758;DHT22;1894;51.038;13.692;2023-04-15T13:53:38;12.20;99.90
3758;DHT22;1894;51.038;13.692;2023-04-15T13:56:09;12.50;99.90
3758;DHT22;1894;51.038;13.692;2023-04-15T13:58:37;12.80;99.90
3758;DHT22;1894;51.038;13.692;2023-04-15T14:01:05;13.00;99.90
3758;DHT22;1894;51.038;13.692;2023-04-15T14:03:34;13.10;99.90
3758;DHT22;1894;51.038;13.692;2023-04-15T14:06:03;13.20;99.90
3758;DHT22;1894;51.038;13.692;2023-04-15T14:08:33;13.10;99.90
3758;DHT22;1894;51.038;13.692;2023-04-15T14:11:00;13.00;99.90
3758;DHT22;1894;51.038;13.692;2023-04-15T14:13:28;12.90;99.90
3758;DHT22;1894;51.038;13.692;2023-04-15T14:15:56;12.90;99.90
3758;DHT22;1894;51.038;13.692;2023-04-15T14:18:23;12.80;99.90
3758;DHT22;1894;51.038;13.692;2023-04-15T14:20:51;12.60;99.90
3758;DHT22;1894;51.038;13.692;2023-04-15T14:23:18;12.60;99.90
3758;DHT22;1894;51.038;13.692;2023-04-15T14:25:45;12.60;99.90
3758;DHT22;1894;51.038;13.692;2023-04-15T14:28:14;12.40;99.90
3758;DHT22;1894;51.038;13.692;2023-04-15T14:30:42;12.30;99.90
3758;DHT22;1894;51.038;13.692;2023-04-15T14:33:09;12.60;99.90
3758;DHT22;1894;51.038;13.692;2023-04-15T14:35:36;12.60;99.90
3758;DHT22;1894;51.038;13.692;2023-04-15T14:38:04;12.80;99.90
3758;DHT22;1894;51.038;13.692;2023-04-15T14:40:34;13.00;99.90
3758;DHT22;1894;51.038;13.692;2023-04-15T14:43:01;12.80;99.90
3758;DHT22;1894;51.038;13.692;2023-04-15T14:45:29;13.10;99.90
3758;DHT22;1894;51.038;13.692;2023-04-15T14:47:58;13.40;99.90
3758;DHT22;1894;51.038;13.692;2023-04-15T14:50:25;13.70;99.90
3758;DHT22;1894;51.038;13.692;2023-04-15T14:52:53;13.70;99.90
3758;DHT22;1894;51.038;13.692;2023-04-15T14:55:20;13.80;99.90
3758;DHT22;1894;51.038;13.692;2023-04-15T14:57:47;14.00;99.90
3758;DHT22;1894;51.038;13.692;2023-04-15T15:00:14;13.90;99.90
3758;DHT22;1894;51.038;13.692;2023-04-15T15:02:42;14.00;99.90
3758;DHT22;1894;51.038;13.692;2023-04-15T15:05:10;14.30;99.90
3758;DHT22;1894;51.038;13.692;2023-04-15T15:07:38;14.30;99.90
3758;DHT22;1894;51.038;13.692;2023-04-15T15:10:07;14.50;99.90
3758;DHT22;1894;51.038;13.692;2023-04-15T15:12:35;14.70;99.90
3758;DHT22;1894;51.038;13.692;2023-04-15T15:15:03;14.40;99.90
3758;DHT22;1894;51.038;13.692;2023-04-15T15:17:41;14.10;99.90
3758;DHT22;1894;51.038;13.692;2023-04-15T15:20:09;14.20;99.90
3758;DHT22;1894;51.038;13.692;2023-04-15T15:22:36;14.20;99.90
3758;DHT22;1894;51.038;13.692;2023-04-15T15:25:04;14.20;99.90
3758;DHT22;1894;51.038;13.692;2023-04-15T15:27:31;14.20;99.90
3758;DHT22;1894;51.038;13.692;2023-04-15T15:29:58;14.10;99.90
3758;DHT22;1894;51.038;13.692;2023-04-15T15:32:26;14.00;99.90
3758;DHT22;1894;51.038;13.692;2023-04-15T15:34:53;13.90;99.90
3758;DHT22;1894;51.038;13.692;2023-04-15T15:37:20;13.90;99.90
3758;DHT22;1894;51.038;13.692;2023-04-15T15:39:48;13.70;99.90
3758;DHT22;1894;51.038;13.692;2023-04-15T15:42:18;13.80;99.90
3758;DHT22;1894;51.038;13.692;2023-04-15T15:44:45;13.80;99.90
3758;DHT22;1894;51.038;13.692;2023-04-15T15:47:15;14.10;99.90
3758;DHT22;1894;51.038;13.692;2023-04-15T15:49:42;14.20;99.90
3758;DHT22;1894;51.038;13.692;2023-04-15T15:52:10;14.00;99.90
3758;DHT22;1894;51.038;13.692;2023-04-15T15:54:41;14.10;99.90
3758;DHT22;1894;51.038;13.692;2023-04-15T15:57:08;14.20;99.90
3758;DHT22;1894;51.038;13.692;2023-04-15T15:59:36;14.00;99.90
3758;DHT22;1894;51.038;13.692;2023-04-15T16:02:10;13.90;99.90
3758;DHT22;1894;51.038;13.692;2023-04-15T16:04:38;13.70;99.90
3758;DHT22;1894;51.038;13.692;2023-04-15T16:07:06;13.50;99.90
3758;DHT22;1894;51.038;13.692;2023-04-15T16:09:33;13.30;99.90
3758;DHT22;1894;51.038;13.692;2023-04-15T16:12:00;13.10;99.90
3758;DHT22;1894;51.038;13.692;2023-04-15T16:14:29;13.00;99.90
3758;DHT22;1894;51.038;13.692;2023-04-15T16:16:56;12.80;99.90
3758;DHT22;1894;51.038;13.692;2023-04-15T16:19:24;12.70;99.90
3758;DHT22;1894;51.038;13.692;2023-04-15T16:21:51;12.60;99.90